sensor_id;sensor_type;location;lat;lon;timestamp;temperature;humidity
51884;DHT22;37915;53.254;6.598;2022-10-18T00:00:15;13.40;99.90
51884;DHT22;37915;53.254;6.598;2022-10-18T00:02:40;13.40;99.90
51884;DHT22;37915;53.254;6.598;2022-10-18T00:05:06;13.40;99.90
51884;DHT22;37915;53.254;6.598;2022-10-18T00:07:32;13.40;99.90
51884;DHT22;37915;53.254;6.598;2022-10-18T00:09:58;13.40;99.90
51884;DHT22;37915;53.254;6.598;2022-10-18T00:12:24;13.40;99.90
51884;DHT22;37915;53.254;6.598;2022-10-18T00:14:50;13.30;99.90
51884;DHT22;37915;53.254;6.598;2022-10-18T00:17:15;13.30;99.90
51884;DHT22;37915;53.254;6.598;2022-10-18T00:19:41;13.40;99.90
51884;DHT22;37915;53.254;6.598;2022-10-18T00:22:06;13.30;99.90
51884;DHT22;37915;53.254;6.598;2022-10-18T00:24:32;13.40;99.90
51884;DHT22;37915;53.254;6.598;2022-10-18T00:27:23;13.40;99.90
51884;DHT22;37915;53.254;6.598;2022-10-18T00:29:51;13.40;99.90
51884;DHT22;37915;53.254;6.598;2022-10-18T00:32:17;13.30;99.90
51884;DHT22;37915;53.254;6.598;2022-10-18T00:34:43;13.30;99.90
51884;DHT22;37915;53.254;6.598;2022-10-18T00:37:08;13.30;99.90
51884;DHT22;37915;53.254;6.598;2022-10-18T00:39:34;13.30;99.90
51884;DHT22;37915;53.254;6.598;2022-10-18T00:42:00;13.20;99.90
51884;DHT22;37915;53.254;6.598;2022-10-18T00:47:01;13.20;99.90
51884;DHT22;37915;53.254;6.598;2022-10-18T00:49:50;13.20;99.90
51884;DHT22;37915;53.254;6.598;2022-10-18T00:52:19;13.20;99.90
51884;DHT22;37915;53.254;6.598;2022-10-18T00:54:47;13.20;99.90
51884;DHT22;37915;53.254;6.598;2022-10-18T00:57:14;13.10;99.90
51884;DHT22;37915;53.254;6.598;2022-10-18T00:59:40;13.20;99.90
51884;DHT22;37915;53.254;6.598;2022-10-18T01:02:07;13.20;99.90
51884;DHT22;37915;53.254;6.598;2022-10-18T01:04:33;13.10;99.90
51884;DHT22;37915;53.254;6.598;2022-10-18T01:07:25;13.10;99.90
51884;DHT22;37915;53.254;6.598;2022-10-18T01:10:20;13.10;99.90
51884;DHT22;37915;53.254;6.598;2022-10-18T01:15:51;13.10;99.90
51884;DHT22;37915;53.254;6.598;2022-10-18T01:18:26;13.10;99.90
51884;DHT22;37915;53.254;6.598;2022-10-18T01:24:26;13.10;99.90
51884;DHT22;37915;53.254;6.598;2022-10-18T01:29:52;13.10;99.90
51884;DHT22;37915;53.254;6.598;2022-10-18T01:32:26;13.00;99.90
51884;DHT22;37915;53.254;6.598;2022-10-18T01:34:58;13.00;99.90
51884;DHT22;37915;53.254;6.598;2022-10-18T01:37:24;13.00;99.90
51884;DHT22;37915;53.254;6.598;2022-10-18T01:39:53;13.00;99.90
51884;DHT22;37915;53.254;6.598;2022-10-18T01:42:20;13.00;99.90
51884;DHT22;37915;53.254;6.598;2022-10-18T01:44:47;13.00;99.90
51884;DHT22;37915;53.254;6.598;2022-10-18T01:47:15;13.00;99.90
51884;DHT22;37915;53.254;6.598;2022-10-18T01:49:42;13.00;99.90
51884;DHT22;37915;53.254;6.598;2022-10-18T01:52:11;12.90;99.90
51884;DHT22;37915;53.254;6.598;2022-10-18T01:54:41;12.90;99.90
51884;DHT22;37915;53.254;6.598;2022-10-18T01:57:36;12.90;99.90
51884;DHT22;37915;53.254;6.598;2022-10-18T02:00:13;12.90;99.90
51884;DHT22;37915;53.254;6.598;2022-10-18T02:02:48;12.90;99.90
51884;DHT22;37915;53.254;6.598;2022-10-18T02:11:09;12.90;99.90
51884;DHT22;37915;53.254;6.598;2022-10-18T02:13:52;12.90;99.90
51884;DHT22;37915;53.254;6.598;2022-10-18T02:16:28;13.00;99.90
51884;DHT22;37915;53.254;6.598;2022-10-18T02:19:01;12.90;99.90
51884;DHT22;37915;53.254;6.598;2022-10-18T02:21:30;12.90;99.90
51884;DHT22;37915;53.254;6.598;2022-10-18T02:23:58;12.90;99.90
51884;DHT22;37915;53.254;6.598;2022-10-18T02:26:24;13.00;99.90
51884;DHT22;37915;53.254;6.598;2022-10-18T02:28:50;12.90;99.90
51884;DHT22;37915;53.254;6.598;2022-10-18T02:31:44;12.90;99.90
51884;DHT22;37915;53.254;6.598;2022-10-18T02:34:31;12.90;99.90
51884;DHT22;37915;53.254;6.598;2022-10-18T02:37:02;12.90;99.90
51884;DHT22;37915;53.254;6.598;2022-10-18T02:39:34;12.90;99.90
51884;DHT22;37915;53.254;6.598;2022-10-18T02:42:02;12.90;99.90
51884;DHT22;37915;53.254;6.598;2022-10-18T02:44:32;12.80;99.90
51884;DHT22;37915;53.254;6.598;2022-10-18T02:46:57;12.80;99.90
51884;DHT22;37915;53.254;6.598;2022-10-18T02:49:23;12.80;99.90
51884;DHT22;37915;53.254;6.598;2022-10-18T02:51:49;12.80;99.90
51884;DHT22;37915;53.254;6.598;2022-10-18T02:54:14;12.80;99.90
51884;DHT22;37915;53.254;6.598;2022-10-18T02:56:40;12.70;99.90
51884;DHT22;37915;53.254;6.598;2022-10-18T02:59:06;12.70;99.90
51884;DHT22;37915;53.254;6.598;2022-10-18T03:01:33;12.70;99.90
51884;DHT22;37915;53.254;6.598;2022-10-18T03:04:00;12.70;99.90
51884;DHT22;37915;53.254;6.598;2022-10-18T03:06:26;12.70;99.90
51884;DHT22;37915;53.254;6.598;2022-10-18T03:08:52;12.60;99.90
51884;DHT22;37915;53.254;6.598;2022-10-18T03:11:18;12.60;99.90
51884;DHT22;37915;53.254;6.598;2022-10-18T03:13:43;12.60;99.90
51884;DHT22;37915;53.254;6.598;2022-10-18T03:16:10;12.60;99.90
51884;DHT22;37915;53.254;6.598;2022-10-18T03:18:35;12.50;99.90
51884;DHT22;37915;53.254;6.598;2022-10-18T03:21:05;12.50;99.90
51884;DHT22;37915;53.254;6.598;2022-10-18T03:23:31;12.50;99.90
51884;DHT22;37915;53.254;6.598;2022-10-18T03:25:56;12.50;99.90
51884;DHT22;37915;53.254;6.598;2022-10-18T03:28:22;12.50;99.90
51884;DHT22;37915;53.254;6.598;2022-10-18T03:30:48;12.50;99.90
51884;DHT22;37915;53.254;6.598;2022-10-18T03:33:14;12.50;99.90
51884;DHT22;37915;53.254;6.598;2022-10-18T03:35:39;12.40;99.90
51884;DHT22;37915;53.254;6.598;2022-10-18T03:38:05;12.50;99.90
51884;DHT22;37915;53.254;6.598;2022-10-18T03:40:31;12.40;99.90
51884;DHT22;37915;53.254;6.598;2022-10-18T03:42:57;12.40;99.90
51884;DHT22;37915;53.254;6.598;2022-10-18T03:45:22;12.40;99.90
51884;DHT22;37915;53.254;6.598;2022-10-18T03:47:48;12.50;99.90
51884;DHT22;37915;53.254;6.598;2022-10-18T03:50:14;12.40;99.90
51884;DHT22;37915;53.254;6.598;2022-10-18T03:52:39;12.40;99.90
51884;DHT22;37915;53.254;6.598;2022-10-18T03:55:06;12.40;99.90
51884;DHT22;37915;53.254;6.598;2022-10-18T03:57:31;12.40;99.90
51884;DHT22;37915;53.254;6.598;2022-10-18T03:59:57;12.40;99.90
51884;DHT22;37915;53.254;6.598;2022-10-18T04:02:24;12.40;99.90
51884;DHT22;37915;53.254;6.598;2022-10-18T04:04:50;12.40;99.90
51884;DHT22;37915;53.254;6.598;2022-10-18T04:07:17;12.40;99.90
51884;DHT22;37915;53.254;6.598;2022-10-18T04:09:43;12.40;99.90
51884;DHT22;37915;53.254;6.598;2022-10-18T04:12:08;12.40;99.90
51884;DHT22;37915;53.254;6.598;2022-10-18T04:14:34;12.40;99.90
51884;DHT22;37915;53.254;6.598;2022-10-18T04:17:00;12.40;99.90
51884;DHT22;37915;53.254;6.598;2022-10-18T04:19:25;12.40;99.90
51884;DHT22;37915;53.254;6.598;2022-10-18T04:21:52;12.40;99.90
51884;DHT22;37915;53.254;6.598;2022-10-18T04:24:18;12.30;99.90
51884;DHT22;37915;53.254;6.598;2022-10-18T04:26:44;12.30;99.90
51884;DHT22;37915;53.254;6.598;2022-10-18T04:29:10;12.30;99.90
51884;DHT22;37915;53.254;6.598;2022-10-18T04:31:36;12.30;99.90
51884;DHT22;37915;53.254;6.598;2022-10-18T04:34:02;12.30;99.90
51884;DHT22;37915;53.254;6.598;2022-10-18T04:36:29;12.30;99.90
51884;DHT22;37915;53.254;6.598;2022-10-18T04:38:55;12.20;99.90
51884;DHT22;37915;53.254;6.598;2022-10-18T04:41:21;12.30;99.90
51884;DHT22;37915;53.254;6.598;2022-10-18T04:43:47;12.20;99.90
51884;DHT22;37915;53.254;6.598;2022-10-18T04:46:13;12.20;99.90
51884;DHT22;37915;53.254;6.598;2022-10-18T04:48:38;12.20;99.90
51884;DHT22;37915;53.254;6.598;2022-10-18T04:51:04;12.20;99.90
51884;DHT22;37915;53.254;6.598;2022-10-18T04:53:30;12.10;99.90
51884;DHT22;37915;53.254;6.598;2022-10-18T04:55:55;12.10;99.90
51884;DHT22;37915;53.254;6.598;2022-10-18T04:58:21;12.20;99.90
51884;DHT22;37915;53.254;6.598;2022-10-18T05:00:47;12.10;99.90
51884;DHT22;37915;53.254;6.598;2022-10-18T05:03:14;12.10;99.90
51884;DHT22;37915;53.254;6.598;2022-10-18T05:05:40;12.00;99.90
51884;DHT22;37915;53.254;6.598;2022-10-18T05:08:06;12.10;99.90
51884;DHT22;37915;53.254;6.598;2022-10-18T05:10:32;12.00;99.90
51884;DHT22;37915;53.254;6.598;2022-10-18T05:12:57;12.00;99.90
51884;DHT22;37915;53.254;6.598;2022-10-18T05:15:23;12.00;99.90
51884;DHT22;37915;53.254;6.598;2022-10-18T05:17:49;12.00;99.90
51884;DHT22;37915;53.254;6.598;2022-10-18T05:20:14;12.00;99.90
51884;DHT22;37915;53.254;6.598;2022-10-18T05:22:40;11.90;99.90
51884;DHT22;37915;53.254;6.598;2022-10-18T05:25:06;11.90;99.90
51884;DHT22;37915;53.254;6.598;2022-10-18T05:27:33;11.90;99.90
51884;DHT22;37915;53.254;6.598;2022-10-18T05:29:59;11.90;99.90
51884;DHT22;37915;53.254;6.598;2022-10-18T05:32:24;11.90;99.90
51884;DHT22;37915;53.254;6.598;2022-10-18T05:34:50;11.80;99.90
51884;DHT22;37915;53.254;6.598;2022-10-18T05:37:15;11.80;99.90
51884;DHT22;37915;53.254;6.598;2022-10-18T05:39:41;11.80;99.90
51884;DHT22;37915;53.254;6.598;2022-10-18T05:42:07;11.70;99.90
51884;DHT22;37915;53.254;6.598;2022-10-18T05:44:33;11.70;99.90
51884;DHT22;37915;53.254;6.598;2022-10-18T05:46:59;11.70;99.90
51884;DHT22;37915;53.254;6.598;2022-10-18T05:49:24;11.60;99.90
51884;DHT22;37915;53.254;6.598;2022-10-18T05:51:50;11.60;99.90
51884;DHT22;37915;53.254;6.598;2022-10-18T05:54:16;11.60;99.90
51884;DHT22;37915;53.254;6.598;2022-10-18T05:56:42;11.50;99.90
51884;DHT22;37915;53.254;6.598;2022-10-18T05:59:07;11.50;99.90
51884;DHT22;37915;53.254;6.598;2022-10-18T06:01:40;11.50;99.90
51884;DHT22;37915;53.254;6.598;2022-10-18T06:04:07;11.50;99.90
51884;DHT22;37915;53.254;6.598;2022-10-18T06:06:36;11.40;99.90
51884;DHT22;37915;53.254;6.598;2022-10-18T06:09:02;11.40;99.90
51884;DHT22;37915;53.254;6.598;2022-10-18T06:11:29;11.40;99.90
51884;DHT22;37915;53.254;6.598;2022-10-18T06:13:55;11.40;99.90
51884;DHT22;37915;53.254;6.598;2022-10-18T06:16:23;11.40;99.90
51884;DHT22;37915;53.254;6.598;2022-10-18T06:18:54;11.30;99.90
51884;DHT22;37915;53.254;6.598;2022-10-18T06:21:20;11.40;99.90
51884;DHT22;37915;53.254;6.598;2022-10-18T06:23:54;11.30;99.90
51884;DHT22;37915;53.254;6.598;2022-10-18T06:26:21;11.30;99.90
51884;DHT22;37915;53.254;6.598;2022-10-18T06:28:47;11.20;99.90
51884;DHT22;37915;53.254;6.598;2022-10-18T06:31:13;11.20;99.90
51884;DHT22;37915;53.254;6.598;2022-10-18T06:33:39;11.20;99.90
51884;DHT22;37915;53.254;6.598;2022-10-18T06:36:08;11.10;99.90
51884;DHT22;37915;53.254;6.598;2022-10-18T06:38:35;11.10;99.90
51884;DHT22;37915;53.254;6.598;2022-10-18T06:41:01;11.10;99.90
51884;DHT22;37915;53.254;6.598;2022-10-18T06:43:27;11.10;99.90
51884;DHT22;37915;53.254;6.598;2022-10-18T06:45:53;11.10;99.90
51884;DHT22;37915;53.254;6.598;2022-10-18T06:48:20;11.00;99.90
51884;DHT22;37915;53.254;6.598;2022-10-18T06:50:57;11.00;99.90
51884;DHT22;37915;53.254;6.598;2022-10-18T06:53:25;11.00;99.90
51884;DHT22;37915;53.254;6.598;2022-10-18T06:55:51;11.00;99.90
51884;DHT22;37915;53.254;6.598;2022-10-18T06:58:17;11.00;99.90
51884;DHT22;37915;53.254;6.598;2022-10-18T07:00:43;11.00;99.90
51884;DHT22;37915;53.254;6.598;2022-10-18T07:03:10;11.00;99.90
51884;DHT22;37915;53.254;6.598;2022-10-18T07:05:36;11.00;99.90
51884;DHT22;37915;53.254;6.598;2022-10-18T07:08:02;11.00;99.90
51884;DHT22;37915;53.254;6.598;2022-10-18T07:10:27;11.10;99.90
51884;DHT22;37915;53.254;6.598;2022-10-18T07:12:53;11.10;99.90
51884;DHT22;37915;53.254;6.598;2022-10-18T07:15:19;11.10;99.90
51884;DHT22;37915;53.254;6.598;2022-10-18T07:17:46;11.20;99.90
51884;DHT22;37915;53.254;6.598;2022-10-18T07:20:13;11.20;99.90
51884;DHT22;37915;53.254;6.598;2022-10-18T07:22:39;11.20;99.90
51884;DHT22;37915;53.254;6.598;2022-10-18T07:25:05;11.20;99.90
51884;DHT22;37915;53.254;6.598;2022-10-18T07:27:35;11.20;99.90
51884;DHT22;37915;53.254;6.598;2022-10-18T07:30:02;11.30;99.90
51884;DHT22;37915;53.254;6.598;2022-10-18T07:32:28;11.30;99.90
51884;DHT22;37915;53.254;6.598;2022-10-18T07:34:53;11.40;99.90
51884;DHT22;37915;53.254;6.598;2022-10-18T07:37:19;11.40;99.90
51884;DHT22;37915;53.254;6.598;2022-10-18T07:39:45;11.50;99.90
51884;DHT22;37915;53.254;6.598;2022-10-18T07:42:10;11.50;99.90
51884;DHT22;37915;53.254;6.598;2022-10-18T07:44:36;11.50;99.90
51884;DHT22;37915;53.254;6.598;2022-10-18T07:47:02;11.60;99.90
51884;DHT22;37915;53.254;6.598;2022-10-18T07:49:27;11.60;99.90
51884;DHT22;37915;53.254;6.598;2022-10-18T07:51:53;11.60;99.90
51884;DHT22;37915;53.254;6.598;2022-10-18T07:54:18;11.70;99.90
51884;DHT22;37915;53.254;6.598;2022-10-18T07:56:44;11.70;99.90
51884;DHT22;37915;53.254;6.598;2022-10-18T07:59:10;11.70;99.90
51884;DHT22;37915;53.254;6.598;2022-10-18T08:01:36;11.80;99.90
51884;DHT22;37915;53.254;6.598;2022-10-18T08:04:01;11.80;99.90
51884;DHT22;37915;53.254;6.598;2022-10-18T08:06:27;11.80;99.90
51884;DHT22;37915;53.254;6.598;2022-10-18T08:08:53;11.80;99.90
51884;DHT22;37915;53.254;6.598;2022-10-18T08:11:21;11.90;99.90
51884;DHT22;37915;53.254;6.598;2022-10-18T08:13:47;11.90;99.90
51884;DHT22;37915;53.254;6.598;2022-10-18T08:16:16;11.90;99.90
51884;DHT22;37915;53.254;6.598;2022-10-18T08:18:42;11.90;99.90
51884;DHT22;37915;53.254;6.598;2022-10-18T08:21:10;12.00;99.90
51884;DHT22;37915;53.254;6.598;2022-10-18T08:23:37;12.00;99.90
51884;DHT22;37915;53.254;6.598;2022-10-18T08:26:14;12.10;99.90
51884;DHT22;37915;53.254;6.598;2022-10-18T08:28:41;12.10;99.90
51884;DHT22;37915;53.254;6.598;2022-10-18T08:31:10;12.20;99.90
51884;DHT22;37915;53.254;6.598;2022-10-18T08:33:37;12.40;99.90
51884;DHT22;37915;53.254;6.598;2022-10-18T08:36:06;12.30;99.90
51884;DHT22;37915;53.254;6.598;2022-10-18T08:38:36;12.30;99.90
51884;DHT22;37915;53.254;6.598;2022-10-18T08:41:27;12.40;99.90
51884;DHT22;37915;53.254;6.598;2022-10-18T08:44:21;12.40;99.90
51884;DHT22;37915;53.254;6.598;2022-10-18T08:46:50;12.40;99.90
51884;DHT22;37915;53.254;6.598;2022-10-18T08:49:36;12.50;99.90
51884;DHT22;37915;53.254;6.598;2022-10-18T08:52:30;12.60;99.90
51884;DHT22;37915;53.254;6.598;2022-10-18T08:55:07;12.60;99.90
51884;DHT22;37915;53.254;6.598;2022-10-18T08:57:34;12.70;99.90
51884;DHT22;37915;53.254;6.598;2022-10-18T09:00:05;12.80;99.90
51884;DHT22;37915;53.254;6.598;2022-10-18T09:03:16;12.80;99.90
51884;DHT22;37915;53.254;6.598;2022-10-18T09:21:41;13.50;99.90
51884;DHT22;37915;53.254;6.598;2022-10-18T09:24:14;13.60;99.90
51884;DHT22;37915;53.254;6.598;2022-10-18T09:26:45;13.70;99.90
51884;DHT22;37915;53.254;6.598;2022-10-18T09:34:57;14.00;99.90
51884;DHT22;37915;53.254;6.598;2022-10-18T09:37:27;14.10;99.90
51884;DHT22;37915;53.254;6.598;2022-10-18T09:40:02;14.20;99.90
51884;DHT22;37915;53.254;6.598;2022-10-18T09:42:35;14.30;99.90
51884;DHT22;37915;53.254;6.598;2022-10-18T09:48:12;14.40;99.90
51884;DHT22;37915;53.254;6.598;2022-10-18T09:50:41;14.50;99.90
51884;DHT22;37915;53.254;6.598;2022-10-18T09:53:11;14.60;99.90
51884;DHT22;37915;53.254;6.598;2022-10-18T09:56:08;14.80;99.90
51884;DHT22;37915;53.254;6.598;2022-10-18T09:58:46;14.90;99.90
51884;DHT22;37915;53.254;6.598;2022-10-18T10:01:22;15.00;99.90
51884;DHT22;37915;53.254;6.598;2022-10-18T10:03:49;15.10;99.90
51884;DHT22;37915;53.254;6.598;2022-10-18T10:06:21;15.30;99.90
51884;DHT22;37915;53.254;6.598;2022-10-18T10:08:58;15.30;99.90
51884;DHT22;37915;53.254;6.598;2022-10-18T10:11:37;15.40;99.90
51884;DHT22;37915;53.254;6.598;2022-10-18T10:14:11;15.50;99.90
51884;DHT22;37915;53.254;6.598;2022-10-18T10:19:30;15.80;99.90
51884;DHT22;37915;53.254;6.598;2022-10-18T10:22:00;16.00;99.90
51884;DHT22;37915;53.254;6.598;2022-10-18T10:24:49;16.20;99.90
51884;DHT22;37915;53.254;6.598;2022-10-18T10:27:32;16.20;99.90
51884;DHT22;37915;53.254;6.598;2022-10-18T10:30:02;16.40;99.90
51884;DHT22;37915;53.254;6.598;2022-10-18T10:32:31;16.50;99.90
51884;DHT22;37915;53.254;6.598;2022-10-18T10:35:40;16.50;99.90
51884;DHT22;37915;53.254;6.598;2022-10-18T10:38:06;16.20;99.90
51884;DHT22;37915;53.254;6.598;2022-10-18T10:40:48;15.90;99.90
51884;DHT22;37915;53.254;6.598;2022-10-18T10:43:22;15.70;99.90
51884;DHT22;37915;53.254;6.598;2022-10-18T10:46:13;15.50;99.90
51884;DHT22;37915;53.254;6.598;2022-10-18T10:48:59;15.40;99.90
51884;DHT22;37915;53.254;6.598;2022-10-18T10:51:35;15.20;99.90
51884;DHT22;37915;53.254;6.598;2022-10-18T10:54:11;15.10;99.90
51884;DHT22;37915;53.254;6.598;2022-10-18T10:57:05;15.10;99.90
51884;DHT22;37915;53.254;6.598;2022-10-18T11:04:43;15.20;99.90
51884;DHT22;37915;53.254;6.598;2022-10-18T11:07:26;15.20;99.90
51884;DHT22;37915;53.254;6.598;2022-10-18T11:09:55;15.20;99.90
51884;DHT22;37915;53.254;6.598;2022-10-18T11:12:33;15.20;99.90
51884;DHT22;37915;53.254;6.598;2022-10-18T11:18:04;15.30;99.90
51884;DHT22;37915;53.254;6.598;2022-10-18T11:20:43;15.30;99.90
51884;DHT22;37915;53.254;6.598;2022-10-18T11:23:12;15.30;99.90
51884;DHT22;37915;53.254;6.598;2022-10-18T11:26:06;15.20;99.90
51884;DHT22;37915;53.254;6.598;2022-10-18T11:31:29;15.10;99.90
51884;DHT22;37915;53.254;6.598;2022-10-18T11:39:42;15.00;99.90
51884;DHT22;37915;53.254;6.598;2022-10-18T11:42:26;15.00;99.90
51884;DHT22;37915;53.254;6.598;2022-10-18T11:45:10;15.00;99.90
51884;DHT22;37915;53.254;6.598;2022-10-18T11:50:43;15.00;99.90
51884;DHT22;37915;53.254;6.598;2022-10-18T12:04:17;15.00;99.90
51884;DHT22;37915;53.254;6.598;2022-10-18T12:06:46;15.20;99.90
51884;DHT22;37915;53.254;6.598;2022-10-18T12:11:59;15.40;99.90
51884;DHT22;37915;53.254;6.598;2022-10-18T12:14:29;15.30;99.90
51884;DHT22;37915;53.254;6.598;2022-10-18T12:17:02;15.30;99.90
51884;DHT22;37915;53.254;6.598;2022-10-18T12:19:30;15.20;99.90
51884;DHT22;37915;53.254;6.598;2022-10-18T12:22:09;15.30;99.90
51884;DHT22;37915;53.254;6.598;2022-10-18T12:24:36;15.30;99.90
51884;DHT22;37915;53.254;6.598;2022-10-18T12:27:02;15.30;99.90
51884;DHT22;37915;53.254;6.598;2022-10-18T12:29:41;15.40;99.90
51884;DHT22;37915;53.254;6.598;2022-10-18T12:32:13;15.40;99.90
51884;DHT22;37915;53.254;6.598;2022-10-18T12:34:59;15.40;99.90
51884;DHT22;37915;53.254;6.598;2022-10-18T12:40:24;15.40;99.90
51884;DHT22;37915;53.254;6.598;2022-10-18T12:42:56;15.40;99.90
51884;DHT22;37915;53.254;6.598;2022-10-18T12:45:31;15.30;99.90
51884;DHT22;37915;53.254;6.598;2022-10-18T12:48:00;15.30;99.90
51884;DHT22;37915;53.254;6.598;2022-10-18T12:50:35;15.30;99.90
51884;DHT22;37915;53.254;6.598;2022-10-18T12:53:23;15.40;99.90
51884;DHT22;37915;53.254;6.598;2022-10-18T12:55:51;15.40;99.90
51884;DHT22;37915;53.254;6.598;2022-10-18T12:58:27;15.40;99.90
51884;DHT22;37915;53.254;6.598;2022-10-18T13:01:04;15.40;99.90
51884;DHT22;37915;53.254;6.598;2022-10-18T13:03:50;15.30;99.90
51884;DHT22;37915;53.254;6.598;2022-10-18T13:06:17;15.20;99.90
51884;DHT22;37915;53.254;6.598;2022-10-18T13:08:43;15.20;99.90
51884;DHT22;37915;53.254;6.598;2022-10-18T13:13:53;15.20;99.90
51884;DHT22;37915;53.254;6.598;2022-10-18T13:19:16;15.30;99.90
51884;DHT22;37915;53.254;6.598;2022-10-18T13:25:23;15.40;99.90
51884;DHT22;37915;53.254;6.598;2022-10-18T13:28:04;15.50;99.90
51884;DHT22;37915;53.254;6.598;2022-10-18T13:33:38;15.40;99.90
51884;DHT22;37915;53.254;6.598;2022-10-18T13:38:45;15.30;99.90
51884;DHT22;37915;53.254;6.598;2022-10-18T13:41:17;15.30;99.90
51884;DHT22;37915;53.254;6.598;2022-10-18T14:00:43;15.70;99.90
51884;DHT22;37915;53.254;6.598;2022-10-18T14:06:26;15.70;99.90
51884;DHT22;37915;53.254;6.598;2022-10-18T14:09:07;15.70;99.90
51884;DHT22;37915;53.254;6.598;2022-10-18T14:17:50;15.90;99.90
51884;DHT22;37915;53.254;6.598;2022-10-18T14:20:33;16.00;99.90
51884;DHT22;37915;53.254;6.598;2022-10-18T14:23:14;16.00;99.90
51884;DHT22;37915;53.254;6.598;2022-10-18T14:25:41;16.00;99.90
51884;DHT22;37915;53.254;6.598;2022-10-18T14:31:14;15.70;99.90
51884;DHT22;37915;53.254;6.598;2022-10-18T14:33:51;15.50;99.90
51884;DHT22;37915;53.254;6.598;2022-10-18T14:39:04;15.40;99.90
51884;DHT22;37915;53.254;6.598;2022-10-18T14:41:32;15.30;99.90
51884;DHT22;37915;53.254;6.598;2022-10-18T14:46:44;15.30;99.90
51884;DHT22;37915;53.254;6.598;2022-10-18T14:49:11;15.20;99.90
51884;DHT22;37915;53.254;6.598;2022-10-18T14:51:39;15.20;99.90
51884;DHT22;37915;53.254;6.598;2022-10-18T14:54:18;15.10;99.90
51884;DHT22;37915;53.254;6.598;2022-10-18T14:56:45;15.00;99.90
51884;DHT22;37915;53.254;6.598;2022-10-18T14:59:23;15.00;99.90
51884;DHT22;37915;53.254;6.598;2022-10-18T15:04:21;14.90;99.90
51884;DHT22;37915;53.254;6.598;2022-10-18T15:06:48;14.80;99.90
51884;DHT22;37915;53.254;6.598;2022-10-18T15:09:15;14.70;99.90
51884;DHT22;37915;53.254;6.598;2022-10-18T15:11:44;14.70;99.90
51884;DHT22;37915;53.254;6.598;2022-10-18T15:14:17;14.60;99.90
51884;DHT22;37915;53.254;6.598;2022-10-18T15:16:43;14.60;99.90
51884;DHT22;37915;53.254;6.598;2022-10-18T15:24:39;14.40;99.90
51884;DHT22;37915;53.254;6.598;2022-10-18T15:27:23;14.40;99.90
51884;DHT22;37915;53.254;6.598;2022-10-18T15:29:49;14.30;99.90
51884;DHT22;37915;53.254;6.598;2022-10-18T15:32:23;14.30;99.90
51884;DHT22;37915;53.254;6.598;2022-10-18T15:34:50;14.30;99.90
51884;DHT22;37915;53.254;6.598;2022-10-18T15:37:30;14.20;99.90
51884;DHT22;37915;53.254;6.598;2022-10-18T15:42:49;14.10;99.90
51884;DHT22;37915;53.254;6.598;2022-10-18T15:55:50;13.90;99.90
51884;DHT22;37915;53.254;6.598;2022-10-18T15:58:37;13.90;99.90
51884;DHT22;37915;53.254;6.598;2022-10-18T16:01:04;13.90;99.90
51884;DHT22;37915;53.254;6.598;2022-10-18T16:03:35;13.80;99.90
51884;DHT22;37915;53.254;6.598;2022-10-18T16:06:06;13.80;99.90
51884;DHT22;37915;53.254;6.598;2022-10-18T16:08:36;13.80;99.90
51884;DHT22;37915;53.254;6.598;2022-10-18T16:11:16;13.70;99.90
51884;DHT22;37915;53.254;6.598;2022-10-18T16:13:43;13.70;99.90
51884;DHT22;37915;53.254;6.598;2022-10-18T16:16:18;13.60;99.90
51884;DHT22;37915;53.254;6.598;2022-10-18T16:18:45;13.60;99.90
51884;DHT22;37915;53.254;6.598;2022-10-18T16:21:31;13.60;99.90
51884;DHT22;37915;53.254;6.598;2022-10-18T16:23:57;13.50;99.90
51884;DHT22;37915;53.254;6.598;2022-10-18T16:26:24;13.50;99.90
51884;DHT22;37915;53.254;6.598;2022-10-18T16:28:50;13.50;99.90
51884;DHT22;37915;53.254;6.598;2022-10-18T16:31:21;13.50;99.90
51884;DHT22;37915;53.254;6.598;2022-10-18T16:33:48;13.40;99.90
51884;DHT22;37915;53.254;6.598;2022-10-18T16:36:16;13.40;99.90
51884;DHT22;37915;53.254;6.598;2022-10-18T16:38:43;13.30;99.90
51884;DHT22;37915;53.254;6.598;2022-10-18T16:41:09;13.30;99.90
51884;DHT22;37915;53.254;6.598;2022-10-18T16:43:35;13.30;99.90
51884;DHT22;37915;53.254;6.598;2022-10-18T16:46:02;13.20;99.90
51884;DHT22;37915;53.254;6.598;2022-10-18T16:48:28;13.20;99.90
51884;DHT22;37915;53.254;6.598;2022-10-18T16:50:55;13.20;99.90
51884;DHT22;37915;53.254;6.598;2022-10-18T16:53:29;13.20;99.90
51884;DHT22;37915;53.254;6.598;2022-10-18T16:55:58;13.20;99.90
51884;DHT22;37915;53.254;6.598;2022-10-18T16:58:25;13.10;99.90
51884;DHT22;37915;53.254;6.598;2022-10-18T17:00:51;13.10;99.90
51884;DHT22;37915;53.254;6.598;2022-10-18T17:03:17;13.10;99.90
51884;DHT22;37915;53.254;6.598;2022-10-18T17:05:43;13.10;99.90
51884;DHT22;37915;53.254;6.598;2022-10-18T17:08:21;13.10;99.90
51884;DHT22;37915;53.254;6.598;2022-10-18T17:10:49;13.10;99.90
51884;DHT22;37915;53.254;6.598;2022-10-18T17:13:18;13.10;99.90
51884;DHT22;37915;53.254;6.598;2022-10-18T17:15:43;13.10;99.90
51884;DHT22;37915;53.254;6.598;2022-10-18T17:18:15;13.10;99.90
51884;DHT22;37915;53.254;6.598;2022-10-18T17:20:41;13.10;99.90
51884;DHT22;37915;53.254;6.598;2022-10-18T17:23:07;13.10;99.90
51884;DHT22;37915;53.254;6.598;2022-10-18T17:25:35;13.10;99.90
51884;DHT22;37915;53.254;6.598;2022-10-18T17:28:01;13.10;99.90
51884;DHT22;37915;53.254;6.598;2022-10-18T17:30:27;13.00;99.90
51884;DHT22;37915;53.254;6.598;2022-10-18T17:32:52;13.00;99.90
51884;DHT22;37915;53.254;6.598;2022-10-18T17:35:19;13.00;99.90
51884;DHT22;37915;53.254;6.598;2022-10-18T17:37:47;13.00;99.90
51884;DHT22;37915;53.254;6.598;2022-10-18T17:40:14;13.00;99.90
51884;DHT22;37915;53.254;6.598;2022-10-18T17:42:39;12.90;99.90
51884;DHT22;37915;53.254;6.598;2022-10-18T17:45:05;13.00;99.90
51884;DHT22;37915;53.254;6.598;2022-10-18T17:47:31;13.00;99.90
51884;DHT22;37915;53.254;6.598;2022-10-18T17:49:57;13.00;99.90
51884;DHT22;37915;53.254;6.598;2022-10-18T17:52:23;12.90;99.90
51884;DHT22;37915;53.254;6.598;2022-10-18T17:54:49;12.90;99.90
51884;DHT22;37915;53.254;6.598;2022-10-18T17:57:14;12.90;99.90
51884;DHT22;37915;53.254;6.598;2022-10-18T17:59:40;12.90;99.90
51884;DHT22;37915;53.254;6.598;2022-10-18T18:02:07;12.90;99.90
51884;DHT22;37915;53.254;6.598;2022-10-18T18:04:33;12.90;99.90
51884;DHT22;37915;53.254;6.598;2022-10-18T18:06:59;13.00;99.90
51884;DHT22;37915;53.254;6.598;2022-10-18T18:09:24;13.00;99.90
51884;DHT22;37915;53.254;6.598;2022-10-18T18:11:51;13.00;99.90
51884;DHT22;37915;53.254;6.598;2022-10-18T18:14:18;13.00;99.90
51884;DHT22;37915;53.254;6.598;2022-10-18T18:16:45;12.90;99.90
51884;DHT22;37915;53.254;6.598;2022-10-18T18:19:12;12.90;99.90